sensor_id;sensor_type;location;lat;lon;timestamp;temperature;humidity
30049;DHT22;16879;50.852;15.602;2023-09-07T00:00:47;13.20;1.00
30049;DHT22;16879;50.852;15.602;2023-09-07T00:03:16;12.80;1.00
30049;DHT22;16879;50.852;15.602;2023-09-07T00:05:42;13.10;1.00
30049;DHT22;16879;50.852;15.602;2023-09-07T00:08:07;13.60;1.00
30049;DHT22;16879;50.852;15.602;2023-09-07T00:10:33;13.40;1.00
30049;DHT22;16879;50.852;15.602;2023-09-07T00:15:29;12.30;1.00
30049;DHT22;16879;50.852;15.602;2023-09-07T00:20:23;12.70;1.00
30049;DHT22;16879;50.852;15.602;2023-09-07T00:22:49;12.90;1.00
30049;DHT22;16879;50.852;15.602;2023-09-07T00:25:15;13.20;1.00
30049;DHT22;16879;50.852;15.602;2023-09-07T00:27:41;12.40;1.00
30049;DHT22;16879;50.852;15.602;2023-09-07T00:30:07;12.70;1.00
30049;DHT22;16879;50.852;15.602;2023-09-07T00:35:04;12.60;1.00
30049;DHT22;16879;50.852;15.602;2023-09-07T00:37:30;13.30;1.00
30049;DHT22;16879;50.852;15.602;2023-09-07T00:39:55;12.40;1.00
30049;DHT22;16879;50.852;15.602;2023-09-07T00:42:21;12.50;1.00
30049;DHT22;16879;50.852;15.602;2023-09-07T00:44:47;12.80;1.00
30049;DHT22;16879;50.852;15.602;2023-09-07T00:47:15;12.20;1.00
30049;DHT22;16879;50.852;15.602;2023-09-07T00:52:08;12.40;1.00
30049;DHT22;16879;50.852;15.602;2023-09-07T00:59:32;12.40;1.00
30049;DHT22;16879;50.852;15.602;2023-09-07T01:09:35;12.20;1.00
30049;DHT22;16879;50.852;15.602;2023-09-07T01:16:55;12.20;1.00
30049;DHT22;16879;50.852;15.602;2023-09-07T01:21:47;12.30;1.00
30049;DHT22;16879;50.852;15.602;2023-09-07T01:24:14;12.40;1.00
30049;DHT22;16879;50.852;15.602;2023-09-07T01:26:41;12.10;1.00
30049;DHT22;16879;50.852;15.602;2023-09-07T01:31:38;12.20;1.00
30049;DHT22;16879;50.852;15.602;2023-09-07T01:43:49;12.40;1.00
30049;DHT22;16879;50.852;15.602;2023-09-07T01:53:34;12.20;1.00
30049;DHT22;16879;50.852;15.602;2023-09-07T01:56:00;11.70;1.00
30049;DHT22;16879;50.852;15.602;2023-09-07T01:58:25;12.00;1.00
30049;DHT22;16879;50.852;15.602;2023-09-07T02:00:58;11.90;1.00
30049;DHT22;16879;50.852;15.602;2023-09-07T02:15:37;11.80;1.00
30049;DHT22;16879;50.852;15.602;2023-09-07T02:27:55;12.20;1.00
30049;DHT22;16879;50.852;15.602;2023-09-07T02:30:21;11.50;1.00
30049;DHT22;16879;50.852;15.602;2023-09-07T02:32:47;12.10;1.00
30049;DHT22;16879;50.852;15.602;2023-09-07T02:35:13;11.70;1.00
30049;DHT22;16879;50.852;15.602;2023-09-07T02:40:05;11.80;1.00
30049;DHT22;16879;50.852;15.602;2023-09-07T02:57:11;11.90;1.00
30049;DHT22;16879;50.852;15.602;2023-09-07T02:59:38;11.10;1.00
30049;DHT22;16879;50.852;15.602;2023-09-07T03:02:03;12.00;1.00
30049;DHT22;16879;50.852;15.602;2023-09-07T03:04:29;10.90;1.00
30049;DHT22;16879;50.852;15.602;2023-09-07T03:09:21;11.90;1.00
30049;DHT22;16879;50.852;15.602;2023-09-07T03:23:59;11.60;1.00
30049;DHT22;16879;50.852;15.602;2023-09-07T03:26:25;11.80;1.00
30049;DHT22;16879;50.852;15.602;2023-09-07T03:31:17;11.80;1.00
30049;DHT22;16879;50.852;15.602;2023-09-07T03:33:43;11.40;1.00
30049;DHT22;16879;50.852;15.602;2023-09-07T03:36:09;11.70;1.00
30049;DHT22;16879;50.852;15.602;2023-09-07T03:38:36;11.60;1.00
30049;DHT22;16879;50.852;15.602;2023-09-07T03:50:47;11.40;1.00
30049;DHT22;16879;50.852;15.602;2023-09-07T03:58:11;10.70;1.00
30049;DHT22;16879;50.852;15.602;2023-09-07T04:00:41;10.70;1.00
30049;DHT22;16879;50.852;15.602;2023-09-07T04:03:10;10.70;1.00
30049;DHT22;16879;50.852;15.602;2023-09-07T04:05:39;10.50;1.00
30049;DHT22;16879;50.852;15.602;2023-09-07T04:08:05;10.60;1.00
30049;DHT22;16879;50.852;15.602;2023-09-07T04:10:32;10.60;1.00
30049;DHT22;16879;50.852;15.602;2023-09-07T04:12:57;10.70;1.00
30049;DHT22;16879;50.852;15.602;2023-09-07T04:15:23;10.30;1.00
30049;DHT22;16879;50.852;15.602;2023-09-07T04:17:51;11.20;1.00
30049;DHT22;16879;50.852;15.602;2023-09-07T04:25:09;11.00;1.00
30049;DHT22;16879;50.852;15.602;2023-09-07T04:27:35;10.80;1.00
30049;DHT22;16879;50.852;15.602;2023-09-07T04:30:01;10.40;1.00
30049;DHT22;16879;50.852;15.602;2023-09-07T04:34:54;10.90;1.00
30049;DHT22;16879;50.852;15.602;2023-09-07T04:42:13;10.60;1.00
30049;DHT22;16879;50.852;15.602;2023-09-07T04:44:39;10.80;1.00
30049;DHT22;16879;50.852;15.602;2023-09-07T04:47:05;11.00;1.00
30049;DHT22;16879;50.852;15.602;2023-09-07T04:51:57;10.90;1.00
30049;DHT22;16879;50.852;15.602;2023-09-07T04:54:23;11.10;1.00
30049;DHT22;16879;50.852;15.602;2023-09-07T04:56:49;10.70;1.00
30049;DHT22;16879;50.852;15.602;2023-09-07T05:01:41;11.00;1.00
30049;DHT22;16879;50.852;15.602;2023-09-07T05:04:07;11.00;1.00
30049;DHT22;16879;50.852;15.602;2023-09-07T05:11:29;10.90;1.00
30049;DHT22;16879;50.852;15.602;2023-09-07T05:18:47;10.70;1.00
30049;DHT22;16879;50.852;15.602;2023-09-07T05:21:14;10.80;1.00
30049;DHT22;16879;50.852;15.602;2023-09-07T05:23:41;10.80;1.00
30049;DHT22;16879;50.852;15.602;2023-09-07T05:26:07;11.10;1.00
30049;DHT22;16879;50.852;15.602;2023-09-07T05:28:33;10.70;1.00
30049;DHT22;16879;50.852;15.602;2023-09-07T05:30:59;10.90;1.00
30049;DHT22;16879;50.852;15.602;2023-09-07T05:33:25;11.10;1.00
30049;DHT22;16879;50.852;15.602;2023-09-07T05:35:51;11.00;1.00
30049;DHT22;16879;50.852;15.602;2023-09-07T05:38:17;11.20;1.00
30049;DHT22;16879;50.852;15.602;2023-09-07T05:40:44;11.20;1.00
30049;DHT22;16879;50.852;15.602;2023-09-07T05:45:38;11.40;1.00
30049;DHT22;16879;50.852;15.602;2023-09-07T05:48:05;11.50;1.00
30049;DHT22;16879;50.852;15.602;2023-09-07T05:50:36;11.60;1.00
30049;DHT22;16879;50.852;15.602;2023-09-07T05:55:28;12.10;1.00
30049;DHT22;16879;50.852;15.602;2023-09-07T05:57:55;12.10;1.00
30049;DHT22;16879;50.852;15.602;2023-09-07T06:00:21;12.30;1.00
30049;DHT22;16879;50.852;15.602;2023-09-07T06:02:47;12.60;1.00
30049;DHT22;16879;50.852;15.602;2023-09-07T06:05:13;12.40;1.00
30049;DHT22;16879;50.852;15.602;2023-09-07T06:07:39;12.60;1.00
30049;DHT22;16879;50.852;15.602;2023-09-07T06:10:05;12.70;1.00
30049;DHT22;16879;50.852;15.602;2023-09-07T06:12:33;13.40;1.00
30049;DHT22;16879;50.852;15.602;2023-09-07T06:19:55;13.80;1.00
30049;DHT22;16879;50.852;15.602;2023-09-07T06:22:21;14.20;1.00
30049;DHT22;16879;50.852;15.602;2023-09-07T06:24:47;14.10;1.00
30049;DHT22;16879;50.852;15.602;2023-09-07T06:27:13;14.80;1.00
30049;DHT22;16879;50.852;15.602;2023-09-07T06:29:39;14.90;1.00
30049;DHT22;16879;50.852;15.602;2023-09-07T06:32:05;14.90;1.00
30049;DHT22;16879;50.852;15.602;2023-09-07T06:36:57;15.60;1.00
30049;DHT22;16879;50.852;15.602;2023-09-07T06:44:15;15.80;1.00
30049;DHT22;16879;50.852;15.602;2023-09-07T06:49:07;16.10;1.00
30049;DHT22;16879;50.852;15.602;2023-09-07T06:51:33;16.00;1.00
30049;DHT22;16879;50.852;15.602;2023-09-07T06:53:59;16.40;1.00
30049;DHT22;16879;50.852;15.602;2023-09-07T06:56:25;17.20;1.00
30049;DHT22;16879;50.852;15.602;2023-09-07T06:58:52;17.00;1.00
30049;DHT22;16879;50.852;15.602;2023-09-07T07:01:19;17.20;1.00
30049;DHT22;16879;50.852;15.602;2023-09-07T07:06:11;17.40;1.00
30049;DHT22;16879;50.852;15.602;2023-09-07T07:11:03;17.80;1.00
30049;DHT22;16879;50.852;15.602;2023-09-07T07:18:21;18.50;1.00
30049;DHT22;16879;50.852;15.602;2023-09-07T07:20:48;18.10;1.00
30049;DHT22;16879;50.852;15.602;2023-09-07T07:23:14;17.90;1.00
30049;DHT22;16879;50.852;15.602;2023-09-07T07:25:40;18.00;1.00
30049;DHT22;16879;50.852;15.602;2023-09-07T07:28:06;18.40;1.00
30049;DHT22;16879;50.852;15.602;2023-09-07T07:30:33;18.80;1.00
30049;DHT22;16879;50.852;15.602;2023-09-07T07:32:59;19.00;1.00
30049;DHT22;16879;50.852;15.602;2023-09-07T07:35:25;18.90;1.00
30049;DHT22;16879;50.852;15.602;2023-09-07T07:37:51;19.00;1.00
30049;DHT22;16879;50.852;15.602;2023-09-07T07:40:17;18.80;1.00
30049;DHT22;16879;50.852;15.602;2023-09-07T07:42:47;19.10;1.00
30049;DHT22;16879;50.852;15.602;2023-09-07T07:45:13;19.50;1.00
30049;DHT22;16879;50.852;15.602;2023-09-07T07:47:42;19.50;1.00
30049;DHT22;16879;50.852;15.602;2023-09-07T07:50:08;19.80;1.00
30049;DHT22;16879;50.852;15.602;2023-09-07T07:55:01;20.30;1.00
30049;DHT22;16879;50.852;15.602;2023-09-07T07:57:28;20.10;1.00
30049;DHT22;16879;50.852;15.602;2023-09-07T07:59:55;20.60;1.00
30049;DHT22;16879;50.852;15.602;2023-09-07T08:02:21;20.60;1.00
30049;DHT22;16879;50.852;15.602;2023-09-07T08:04:47;21.20;1.00
30049;DHT22;16879;50.852;15.602;2023-09-07T08:07:13;20.90;1.00
30049;DHT22;16879;50.852;15.602;2023-09-07T08:12:05;21.70;1.00
30049;DHT22;16879;50.852;15.602;2023-09-07T08:14:31;21.90;1.00
30049;DHT22;16879;50.852;15.602;2023-09-07T08:16:58;21.90;1.00
30049;DHT22;16879;50.852;15.602;2023-09-07T08:19:24;21.90;1.00
30049;DHT22;16879;50.852;15.602;2023-09-07T08:21:53;22.40;1.00
30049;DHT22;16879;50.852;15.602;2023-09-07T08:24:19;22.70;1.00
30049;DHT22;16879;50.852;15.602;2023-09-07T08:31:40;23.20;1.00
30049;DHT22;16879;50.852;15.602;2023-09-07T08:34:07;23.00;1.00
30049;DHT22;16879;50.852;15.602;2023-09-07T08:36:37;23.20;1.00
30049;DHT22;16879;50.852;15.602;2023-09-07T08:39:04;23.40;1.00
30049;DHT22;16879;50.852;15.602;2023-09-07T08:44:29;23.80;1.00
30049;DHT22;16879;50.852;15.602;2023-09-07T08:46:55;23.60;1.00
30049;DHT22;16879;50.852;15.602;2023-09-07T08:49:22;23.90;1.00
30049;DHT22;16879;50.852;15.602;2023-09-07T08:54:17;24.10;1.00
30049;DHT22;16879;50.852;15.602;2023-09-07T08:56:45;24.30;1.00
30049;DHT22;16879;50.852;15.602;2023-09-07T08:59:11;24.40;1.00
30049;DHT22;16879;50.852;15.602;2023-09-07T09:01:37;24.60;1.00
30049;DHT22;16879;50.852;15.602;2023-09-07T09:04:03;24.70;1.00
30049;DHT22;16879;50.852;15.602;2023-09-07T09:06:29;24.90;1.00
30049;DHT22;16879;50.852;15.602;2023-09-07T09:08:56;25.00;1.00
30049;DHT22;16879;50.852;15.602;2023-09-07T09:11:23;25.00;1.00
30049;DHT22;16879;50.852;15.602;2023-09-07T09:13:52;25.40;1.00
30049;DHT22;16879;50.852;15.602;2023-09-07T09:16:18;25.30;1.00
30049;DHT22;16879;50.852;15.602;2023-09-07T09:18:55;25.40;99.90
30049;DHT22;16879;50.852;15.602;2023-09-07T09:21:22;25.40;99.90
30049;DHT22;16879;50.852;15.602;2023-09-07T09:23:51;25.60;99.90
30049;DHT22;16879;50.852;15.602;2023-09-07T09:26:18;26.10;1.00
30049;DHT22;16879;50.852;15.602;2023-09-07T09:28:44;26.00;99.90
30049;DHT22;16879;50.852;15.602;2023-09-07T09:31:11;25.80;99.90
30049;DHT22;16879;50.852;15.602;2023-09-07T09:33:41;26.20;99.90
30049;DHT22;16879;50.852;15.602;2023-09-07T09:36:08;26.30;99.90
30049;DHT22;16879;50.852;15.602;2023-09-07T09:38:35;26.50;99.90
30049;DHT22;16879;50.852;15.602;2023-09-07T09:41:01;26.30;99.90
30049;DHT22;16879;50.852;15.602;2023-09-07T09:45:57;27.00;99.90
30049;DHT22;16879;50.852;15.602;2023-09-07T09:48:27;26.90;99.90
30049;DHT22;16879;50.852;15.602;2023-09-07T09:50:53;27.20;99.90
30049;DHT22;16879;50.852;15.602;2023-09-07T09:55:50;27.60;99.90
30049;DHT22;16879;50.852;15.602;2023-09-07T09:58:19;27.70;99.90
30049;DHT22;16879;50.852;15.602;2023-09-07T10:00:47;27.50;99.90
30049;DHT22;16879;50.852;15.602;2023-09-07T10:03:17;27.00;99.90
30049;DHT22;16879;50.852;15.602;2023-09-07T10:05:46;27.40;99.90
30049;DHT22;16879;50.852;15.602;2023-09-07T10:08:14;27.60;99.90
30049;DHT22;16879;50.852;15.602;2023-09-07T10:10:41;27.80;99.90
30049;DHT22;16879;50.852;15.602;2023-09-07T10:13:08;28.00;99.90
30049;DHT22;16879;50.852;15.602;2023-09-07T10:15:34;28.10;99.90
30049;DHT22;16879;50.852;15.602;2023-09-07T10:18:12;28.30;99.90
30049;DHT22;16879;50.852;15.602;2023-09-07T10:23:16;28.70;99.90
30049;DHT22;16879;50.852;15.602;2023-09-07T10:25:42;28.60;99.90
30049;DHT22;16879;50.852;15.602;2023-09-07T10:28:18;29.00;99.90
30049;DHT22;16879;50.852;15.602;2023-09-07T10:30:45;29.30;99.90
30049;DHT22;16879;50.852;15.602;2023-09-07T10:33:20;29.30;99.90
30049;DHT22;16879;50.852;15.602;2023-09-07T10:38:16;29.40;99.90
30049;DHT22;16879;50.852;15.602;2023-09-07T10:40:44;29.40;99.90
30049;DHT22;16879;50.852;15.602;2023-09-07T10:43:11;29.40;99.90
30049;DHT22;16879;50.852;15.602;2023-09-07T10:45:37;29.40;99.90
30049;DHT22;16879;50.852;15.602;2023-09-07T10:48:03;29.50;99.90
30049;DHT22;16879;50.852;15.602;2023-09-07T10:50:29;29.40;99.90
30049;DHT22;16879;50.852;15.602;2023-09-07T10:52:55;29.50;99.90
30049;DHT22;16879;50.852;15.602;2023-09-07T10:55:21;29.70;99.90
30049;DHT22;16879;50.852;15.602;2023-09-07T10:57:47;29.60;99.90
30049;DHT22;16879;50.852;15.602;2023-09-07T11:00:14;29.40;99.90
30049;DHT22;16879;50.852;15.602;2023-09-07T11:02:42;29.60;99.90
30049;DHT22;16879;50.852;15.602;2023-09-07T11:05:08;29.50;99.90
30049;DHT22;16879;50.852;15.602;2023-09-07T11:07:36;29.70;99.90
30049;DHT22;16879;50.852;15.602;2023-09-07T11:10:06;29.60;99.90
30049;DHT22;16879;50.852;15.602;2023-09-07T11:12:37;30.00;99.90
30049;DHT22;16879;50.852;15.602;2023-09-07T11:15:04;30.40;99.90
30049;DHT22;16879;50.852;15.602;2023-09-07T11:17:30;30.20;99.90
30049;DHT22;16879;50.852;15.602;2023-09-07T11:19:56;30.20;99.90
30049;DHT22;16879;50.852;15.602;2023-09-07T11:22:22;30.10;99.90
30049;DHT22;16879;50.852;15.602;2023-09-07T11:27:17;30.40;99.90
30049;DHT22;16879;50.852;15.602;2023-09-07T11:29:51;30.70;99.90
30049;DHT22;16879;50.852;15.602;2023-09-07T11:32:17;30.60;99.90
30049;DHT22;16879;50.852;15.602;2023-09-07T11:34:51;30.50;99.90
30049;DHT22;16879;50.852;15.602;2023-09-07T11:37:22;30.40;99.90
30049;DHT22;16879;50.852;15.602;2023-09-07T11:47:07;30.70;99.90
30049;DHT22;16879;50.852;15.602;2023-09-07T11:49:33;30.70;99.90
30049;DHT22;16879;50.852;15.602;2023-09-07T11:51:59;30.70;99.90
30049;DHT22;16879;50.852;15.602;2023-09-07T11:54:25;30.80;99.90
30049;DHT22;16879;50.852;15.602;2023-09-07T11:59:17;30.70;99.90
30049;DHT22;16879;50.852;15.602;2023-09-07T12:01:43;30.70;99.90
30049;DHT22;16879;50.852;15.602;2023-09-07T12:04:09;30.70;99.90
30049;DHT22;16879;50.852;15.602;2023-09-07T12:06:36;30.70;99.90
30049;DHT22;16879;50.852;15.602;2023-09-07T12:09:04;30.80;99.90
30049;DHT22;16879;50.852;15.602;2023-09-07T12:11:30;31.10;99.90
30049;DHT22;16879;50.852;15.602;2023-09-07T12:13:56;30.60;99.90
30049;DHT22;16879;50.852;15.602;2023-09-07T12:16:22;30.90;99.90
30049;DHT22;16879;50.852;15.602;2023-09-07T12:21:15;30.80;99.90
30049;DHT22;16879;50.852;15.602;2023-09-07T12:23:41;30.60;99.90
30049;DHT22;16879;50.852;15.602;2023-09-07T12:28:34;30.70;99.90
30049;DHT22;16879;50.852;15.602;2023-09-07T12:31:00;30.80;99.90
30049;DHT22;16879;50.852;15.602;2023-09-07T12:40:52;30.60;99.90
30049;DHT22;16879;50.852;15.602;2023-09-07T12:43:19;30.60;99.90
30049;DHT22;16879;50.852;15.602;2023-09-07T12:45:46;30.60;99.90
30049;DHT22;16879;50.852;15.602;2023-09-07T12:48:12;30.80;99.90
30049;DHT22;16879;50.852;15.602;2023-09-07T12:50:38;30.50;99.90
30049;DHT22;16879;50.852;15.602;2023-09-07T12:53:06;30.50;99.90
30049;DHT22;16879;50.852;15.602;2023-09-07T12:55:32;30.60;99.90
30049;DHT22;16879;50.852;15.602;2023-09-07T12:57:58;30.60;99.90
30049;DHT22;16879;50.852;15.602;2023-09-07T13:00:26;30.60;99.90
30049;DHT22;16879;50.852;15.602;2023-09-07T13:02:52;30.70;99.90
30049;DHT22;16879;50.852;15.602;2023-09-07T13:05:18;30.40;99.90
30049;DHT22;16879;50.852;15.602;2023-09-07T13:12:37;30.30;99.90
30049;DHT22;16879;50.852;15.602;2023-09-07T13:15:04;30.50;99.90
30049;DHT22;16879;50.852;15.602;2023-09-07T13:17:30;30.50;99.90
30049;DHT22;16879;50.852;15.602;2023-09-07T13:19:56;30.70;99.90
30049;DHT22;16879;50.852;15.602;2023-09-07T13:22:22;30.60;99.90
30049;DHT22;16879;50.852;15.602;2023-09-07T13:24:48;30.40;99.90
30049;DHT22;16879;50.852;15.602;2023-09-07T13:27:15;30.60;99.90
30049;DHT22;16879;50.852;15.602;2023-09-07T13:29:41;30.60;99.90
30049;DHT22;16879;50.852;15.602;2023-09-07T13:32:07;30.60;99.90
30049;DHT22;16879;50.852;15.602;2023-09-07T13:36:59;30.70;99.90
30049;DHT22;16879;50.852;15.602;2023-09-07T13:41:51;30.60;99.90
30049;DHT22;16879;50.852;15.602;2023-09-07T13:44:17;30.50;99.90
30049;DHT22;16879;50.852;15.602;2023-09-07T13:46:43;30.40;99.90
30049;DHT22;16879;50.852;15.602;2023-09-07T13:49:10;30.60;99.90
30049;DHT22;16879;50.852;15.602;2023-09-07T13:54:06;30.70;99.90
30049;DHT22;16879;50.852;15.602;2023-09-07T13:56:33;30.80;99.90
30049;DHT22;16879;50.852;15.602;2023-09-07T14:01:25;30.80;99.90
30049;DHT22;16879;50.852;15.602;2023-09-07T14:03:51;30.70;99.90
30049;DHT22;16879;50.852;15.602;2023-09-07T14:06:17;30.40;99.90
30049;DHT22;16879;50.852;15.602;2023-09-07T14:08:45;30.40;99.90
30049;DHT22;16879;50.852;15.602;2023-09-07T14:11:12;30.50;99.90
30049;DHT22;16879;50.852;15.602;2023-09-07T14:13:37;30.60;99.90
30049;DHT22;16879;50.852;15.602;2023-09-07T14:16:04;30.80;99.90
30049;DHT22;16879;50.852;15.602;2023-09-07T14:18:30;30.70;99.90
30049;DHT22;16879;50.852;15.602;2023-09-07T14:20:56;30.80;99.90
30049;DHT22;16879;50.852;15.602;2023-09-07T14:23:24;30.80;99.90
30049;DHT22;16879;50.852;15.602;2023-09-07T14:25:54;30.70;99.90
30049;DHT22;16879;50.852;15.602;2023-09-07T14:28:20;30.70;99.90
30049;DHT22;16879;50.852;15.602;2023-09-07T14:30:47;30.70;99.90
30049;DHT22;16879;50.852;15.602;2023-09-07T14:38:05;30.00;99.90
30049;DHT22;16879;50.852;15.602;2023-09-07T14:40:31;30.00;99.90
30049;DHT22;16879;50.852;15.602;2023-09-07T14:42:57;29.80;99.90
30049;DHT22;16879;50.852;15.602;2023-09-07T14:45:24;29.70;99.90
30049;DHT22;16879;50.852;15.602;2023-09-07T14:47:51;29.60;99.90
30049;DHT22;16879;50.852;15.602;2023-09-07T14:50:18;29.50;99.90
30049;DHT22;16879;50.852;15.602;2023-09-07T14:52:44;29.50;99.90
30049;DHT22;16879;50.852;15.602;2023-09-07T14:55:13;29.50;99.90
30049;DHT22;16879;50.852;15.602;2023-09-07T14:57:42;29.40;99.90
30049;DHT22;16879;50.852;15.602;2023-09-07T15:00:09;29.40;99.90
30049;DHT22;16879;50.852;15.602;2023-09-07T15:02:35;29.00;99.90
30049;DHT22;16879;50.852;15.602;2023-09-07T15:07:28;29.00;99.90
30049;DHT22;16879;50.852;15.602;2023-09-07T15:09:54;29.00;99.90
30049;DHT22;16879;50.852;15.602;2023-09-07T15:12:20;28.90;99.90
30049;DHT22;16879;50.852;15.602;2023-09-07T15:14:45;28.90;99.90
30049;DHT22;16879;50.852;15.602;2023-09-07T15:17:12;29.20;99.90
30049;DHT22;16879;50.852;15.602;2023-09-07T15:19:39;29.10;99.90
30049;DHT22;16879;50.852;15.602;2023-09-07T15:22:05;28.90;99.90
30049;DHT22;16879;50.852;15.602;2023-09-07T15:24:31;28.70;99.90
30049;DHT22;16879;50.852;15.602;2023-09-07T15:26:57;28.80;99.90
30049;DHT22;16879;50.852;15.602;2023-09-07T15:29:24;28.50;99.90
30049;DHT22;16879;50.852;15.602;2023-09-07T15:31:50;28.30;99.90
30049;DHT22;16879;50.852;15.602;2023-09-07T15:34:16;28.40;99.90
30049;DHT22;16879;50.852;15.602;2023-09-07T15:36:42;28.20;99.90
30049;DHT22;16879;50.852;15.602;2023-09-07T15:39:10;28.10;99.90
30049;DHT22;16879;50.852;15.602;2023-09-07T15:41:36;28.20;99.90
30049;DHT22;16879;50.852;15.602;2023-09-07T15:46:29;27.70;99.90
30049;DHT22;16879;50.852;15.602;2023-09-07T15:48:57;27.70;99.90
30049;DHT22;16879;50.852;15.602;2023-09-07T15:51:23;27.50;99.90
30049;DHT22;16879;50.852;15.602;2023-09-07T15:53:49;27.40;99.90
30049;DHT22;16879;50.852;15.602;2023-09-07T15:56:16;27.50;99.90
30049;DHT22;16879;50.852;15.602;2023-09-07T15:58:43;27.10;99.90
30049;DHT22;16879;50.852;15.602;2023-09-07T16:03:37;26.80;99.90
30049;DHT22;16879;50.852;15.602;2023-09-07T16:06:03;26.90;99.90
30049;DHT22;16879;50.852;15.602;2023-09-07T16:08:30;26.60;99.90
30049;DHT22;16879;50.852;15.602;2023-09-07T16:13:23;26.20;99.90
30049;DHT22;16879;50.852;15.602;2023-09-07T16:15:49;25.70;99.90
30049;DHT22;16879;50.852;15.602;2023-09-07T16:20:46;25.30;99.90
30049;DHT22;16879;50.852;15.602;2023-09-07T16:23:14;25.10;99.90
30049;DHT22;16879;50.852;15.602;2023-09-07T16:25:41;24.70;99.90
30049;DHT22;16879;50.852;15.602;2023-09-07T16:28:07;24.50;99.90
30049;DHT22;16879;50.852;15.602;2023-09-07T16:30:33;24.00;99.90
30049;DHT22;16879;50.852;15.602;2023-09-07T16:32:59;23.80;99.90
30049;DHT22;16879;50.852;15.602;2023-09-07T16:35:25;23.40;99.90
30049;DHT22;16879;50.852;15.602;2023-09-07T16:37:52;23.30;99.90
30049;DHT22;16879;50.852;15.602;2023-09-07T16:45:12;23.00;99.90
30049;DHT22;16879;50.852;15.602;2023-09-07T16:52:33;22.20;99.90
30049;DHT22;16879;50.852;15.602;2023-09-07T16:54:59;22.00;99.90
30049;DHT22;16879;50.852;15.602;2023-09-07T16:59:58;21.30;99.90
30049;DHT22;16879;50.852;15.602;2023-09-07T17:02:25;21.10;99.90
30049;DHT22;16879;50.852;15.602;2023-09-07T17:26:45;19.80;99.90
30049;DHT22;16879;50.852;15.602;2023-09-07T17:29:11;19.60;99.90
30049;DHT22;16879;50.852;15.602;2023-09-07T17:31:38;19.70;99.90
30049;DHT22;16879;50.852;15.602;2023-09-07T17:36:30;19.60;99.90
30049;DHT22;16879;50.852;15.602;2023-09-07T17:38:58;19.30;99.90
30049;DHT22;16879;50.852;15.602;2023-09-07T17:41:28;19.20;99.90
30049;DHT22;16879;50.852;15.602;2023-09-07T17:43:55;19.20;99.90
30049;DHT22;16879;50.852;15.602;2023-09-07T17:46:24;18.70;99.90
30049;DHT22;16879;50.852;15.602;2023-09-07T17:48:53;19.10;99.90
30049;DHT22;16879;50.852;15.602;2023-09-07T17:51:19;18.60;99.90
30049;DHT22;16879;50.852;15.602;2023-09-07T17:53:46;18.80;99.90
30049;DHT22;16879;50.852;15.602;2023-09-07T17:56:13;18.50;99.90
30049;DHT22;16879;50.852;15.602;2023-09-07T17:58:41;18.60;99.90
30049;DHT22;16879;50.852;15.602;2023-09-07T18:01:15;18.60;99.90
30049;DHT22;16879;50.852;15.602;2023-09-07T18:03:42;18.50;1.00
30049;DHT22;16879;50.852;15.602;2023-09-07T18:06:09;18.10;1.00
30049;DHT22;16879;50.852;15.602;2023-09-07T18:08:39;18.20;1.00
30049;DHT22;16879;50.852;15.602;2023-09-07T18:11:06;18.10;1.00
30049;DHT22;16879;50.852;15.602;2023-09-07T18:13:32;17.90;1.00
30049;DHT22;16879;50.852;15.602;2023-09-07T18:18:27;17.80;1.00
30049;DHT22;16879;50.852;15.602;2023-09-07T18:20:55;18.00;1.00
30049;DHT22;16879;50.852;15.602;2023-09-07T18:23:21;17.90;1.00
30049;DHT22;16879;50.852;15.602;2023-09-07T18:25:49;17.90;1.00
30049;DHT22;16879;50.852;15.602;2023-09-07T18:28:15;17.70;1.00
30049;DHT22;16879;50.852;15.602;2023-09-07T18:30:44;17.60;1.00
30049;DHT22;16879;50.852;15.602;2023-09-07T18:33:10;17.40;1.00
30049;DHT22;16879;50.852;15.602;2023-09-07T18:35:39;17.40;1.00
30049;DHT22;16879;50.852;15.602;2023-09-07T18:38:05;17.50;1.00
30049;DHT22;16879;50.852;15.602;2023-09-07T18:40:32;17.30;1.00
30049;DHT22;16879;50.852;15.602;2023-09-07T18:43:01;17.30;1.00
30049;DHT22;16879;50.852;15.602;2023-09-07T18:45:27;17.30;1.00
30049;DHT22;16879;50.852;15.602;2023-09-07T18:47:54;17.40;1.00
30049;DHT22;16879;50.852;15.602;2023-09-07T18:50:21;16.80;1.00
30049;DHT22;16879;50.852;15.602;2023-09-07T18:55:17;17.00;1.00
30049;DHT22;16879;50.852;15.602;2023-09-07T19:00:12;16.80;1.00
30049;DHT22;16879;50.852;15.602;2023-09-07T19:02:41;16.80;1.00
30049;DHT22;16879;50.852;15.602;2023-09-07T19:05:09;16.60;1.00
30049;DHT22;16879;50.852;15.602;2023-09-07T19:10:05;16.70;1.00
30049;DHT22;16879;50.852;15.602;2023-09-07T19:12:32;16.70;1.00
30049;DHT22;16879;50.852;15.602;2023-09-07T19:15:06;16.20;1.00
30049;DHT22;16879;50.852;15.602;2023-09-07T19:17:32;16.50;1.00
30049;DHT22;16879;50.852;15.602;2023-09-07T19:20:03;16.40;1.00
30049;DHT22;16879;50.852;15.602;2023-09-07T19:22:29;16.80;1.00
30049;DHT22;16879;50.852;15.602;2023-09-07T19:24:56;16.30;1.00
30049;DHT22;16879;50.852;15.602;2023-09-07T19:27:25;16.20;1.00
30049;DHT22;16879;50.852;15.602;2023-09-07T19:34:46;16.10;1.00
30049;DHT22;16879;50.852;15.602;2023-09-07T19:37:12;15.80;1.00
30049;DHT22;16879;50.852;15.602;2023-09-07T19:39:43;16.00;1.00
30049;DHT22;16879;50.852;15.602;2023-09-07T19:42:10;16.00;1.00
30049;DHT22;16879;50.852;15.602;2023-09-07T19:47:05;15.60;1.00
30049;DHT22;16879;50.852;15.602;2023-09-07T19:52:00;15.70;1.00
30049;DHT22;16879;50.852;15.602;2023-09-07T19:54:26;15.70;1.00
30049;DHT22;16879;50.852;15.602;2023-09-07T19:56:53;15.70;1.00
30049;DHT22;16879;50.852;15.602;2023-09-07T20:01:55;15.60;1.00
30049;DHT22;16879;50.852;15.602;2023-09-07T20:06:49;15.40;1.00
30049;DHT22;16879;50.852;15.602;2023-09-07T20:09:16;15.40;1.00
30049;DHT22;16879;50.852;15.602;2023-09-07T20:11:44;15.40;1.00
30049;DHT22;16879;50.852;15.602;2023-09-07T20:14:12;15.60;1.00
30049;DHT22;16879;50.852;15.602;2023-09-07T20:19:07;15.20;1.00
30049;DHT22;16879;50.852;15.602;2023-09-07T20:26:27;15.10;1.00
30049;DHT22;16879;50.852;15.602;2023-09-07T20:28:55;14.60;1.00
30049;DHT22;16879;50.852;15.602;2023-09-07T20:31:21;14.80;1.00
30049;DHT22;16879;50.852;15.602;2023-09-07T20:33:48;15.10;1.00
30049;DHT22;16879;50.852;15.602;2023-09-07T20:38:41;15.40;1.00
30049;DHT22;16879;50.852;15.602;2023-09-07T20:46:01;14.70;1.00
30049;DHT22;16879;50.852;15.602;2023-09-07T20:48:30;15.10;1.00
30049;DHT22;16879;50.852;15.602;2023-09-07T20:50:57;14.40;1.00
30049;DHT22;16879;50.852;15.602;2023-09-07T20:53:23;14.40;1.00
30049;DHT22;16879;50.852;15.602;2023-09-07T21:03:10;14.50;1.00